Time;durP1;ratioP1;P1;durP2;ratioP2;P2;SDS_P1;SDS_P2;PMS_P1;PMS_P2;Temp;Humidity;BMP_temperature;BMP_pressure;BME280_temperature;BME280_humidity;BME280_pressure;Samples;Min_cycle;Max_cycle;Signal;HPM_P1;HPM_P2
2022/01/20 00:00:29;;;;;;;10.15;7.40;;;;;;;2.31;100.00;98890.16;10355999;28;20054;-78
2022/01/20 00:05:41;;;;;;;10.75;8.05;;;;;;;2.29;100.00;98901.03;10332914;28;20491;-78
2022/01/20 00:26:52;;;;;;;12.80;8.25;;;;;;;2.08;100.00;98899.25;10322277;28;20051;-78
2022/01/20 00:32:12;;;;;;;13.32;8.88;;;;;;;2.03;100.00;98901.84;10294484;28;20416;-80
2022/01/20 00:37:16;;;;;;;12.07;8.70;;;;;;;2.05;100.00;98903.19;10323492;28;20137;-79
2022/01/20 00:42:21;;;;;;;13.73;9.07;;;;;;;2.10;100.00;98918.31;10295511;28;20146;-76
2022/01/20 00:47:22;;;;;;;12.23;7.93;;;;;;;1.95;100.00;98919.78;10295827;28;20418;-77
2022/01/20 00:52:23;;;;;;;13.13;8.45;;;;;;;1.85;100.00;98930.28;10303714;28;20069;-76
2022/01/20 00:57:24;;;;;;;10.98;7.88;;;;;;;1.77;100.00;98941.31;10281004;28;20051;-77
2022/01/20 01:02:25;;;;;;;12.45;7.97;;;;;;;1.76;100.00;98937.06;10329882;28;20476;-76
2022/01/20 01:07:45;;;;;;;12.75;7.97;;;;;;;1.66;100.00;98944.91;10313253;28;20045;-76
2022/01/20 01:12:54;;;;;;;15.13;8.80;;;;;;;1.66;100.00;98950.19;10314749;28;20054;-77
2022/01/20 01:23:14;;;;;;;11.75;7.95;;;;;;;1.79;100.00;98941.06;10337847;28;20105;-77
2022/01/20 01:28:16;;;;;;;12.85;7.75;;;;;;;1.82;100.00;98938.69;10319210;28;20066;-77
2022/01/20 01:33:18;;;;;;;12.15;7.53;;;;;;;1.78;100.00;98945.56;10316838;28;20217;-77
2022/01/20 01:38:38;;;;;;;10.57;6.97;;;;;;;1.92;100.00;98932.72;10320284;28;20061;-76
2022/01/20 01:43:45;;;;;;;10.25;6.40;;;;;;;1.84;100.00;98944.56;10335830;28;20050;-76
2022/01/20 01:48:45;;;;;;;11.27;7.78;;;;;;;1.86;100.00;98936.38;10349096;28;20061;-77
2022/01/20 01:53:46;;;;;;;9.73;6.60;;;;;;;1.92;100.00;98930.88;10327911;28;20062;-77
2022/01/20 01:58:50;;;;;;;9.45;6.57;;;;;;;1.91;100.00;98926.63;10308622;28;20031;-79
2022/01/20 02:04:07;;;;;;;11.60;7.28;;;;;;;1.97;100.00;98922.19;10350106;28;20054;-79
2022/01/20 02:19:38;;;;;;;9.63;6.72;;;;;;;1.95;100.00;98937.53;10296732;28;20129;-78
2022/01/20 02:24:59;;;;;;;11.15;7.32;;;;;;;1.92;100.00;98940.66;10303212;28;20220;-76
2022/01/20 02:30:00;;;;;;;13.18;7.95;;;;;;;1.92;100.00;98930.88;10297666;28;20046;-77
2022/01/20 02:35:03;;;;;;;10.95;7.53;;;;;;;1.91;100.00;98947.00;10309059;28;20046;-77
2022/01/20 02:44:48;;;;;;;10.55;7.10;;;;;;;1.97;100.00;98961.88;10319247;28;20103;-77
2022/01/20 02:45:26;;;;;;;11.75;7.70;;;;;;;1.96;100.00;98947.06;10340033;28;20047;-78
2022/01/20 02:50:27;;;;;;;14.35;8.77;;;;;;;1.96;100.00;98939.13;10317477;28;20055;-77
2022/01/20 02:55:29;;;;;;;11.90;7.15;;;;;;;1.98;100.00;98948.41;10330265;28;20055;-79
2022/01/20 03:00:31;;;;;;;11.32;6.40;;;;;;;2.03;100.00;98944.22;10343977;28;20050;-78
2022/01/20 03:05:33;;;;;;;8.73;6.38;;;;;;;1.99;100.00;98938.59;10315548;28;20054;-78
2022/01/20 03:10:39;;;;;;;9.50;6.88;;;;;;;1.93;100.00;98936.97;10356364;28;20050;-78
2022/01/20 03:15:41;;;;;;;9.82;6.95;;;;;;;1.93;100.00;98931.69;10317903;28;20051;-76
2022/01/20 03:20:41;;;;;;;11.15;7.72;;;;;;;1.86;100.00;98931.09;10297027;28;20128;-79
2022/01/20 03:25:42;;;;;;;13.90;8.60;;;;;;;1.78;100.00;98931.53;10282773;28;20051;-77
2022/01/20 03:30:43;;;;;;;12.23;8.43;;;;;;;1.85;100.00;98917.06;10316307;28;20061;-77
2022/01/20 03:35:44;;;;;;;12.23;7.90;;;;;;;1.82;100.00;98919.38;10318137;28;20105;-79
2022/01/20 03:41:14;;;;;;;11.00;7.43;;;;;;;1.69;100.00;98920.59;10311389;28;20534;-79
2022/01/20 03:46:16;;;;;;;10.00;6.63;;;;;;;1.78;100.00;98919.09;10301891;28;20058;-79
2022/01/20 03:51:23;;;;;;;9.75;6.95;;;;;;;1.73;100.00;98915.59;10311186;28;20088;-80
2022/01/20 03:56:27;;;;;;;10.73;6.63;;;;;;;1.82;100.00;98916.72;10320348;28;20054;-78
2022/01/20 04:01:53;;;;;;;11.05;7.22;;;;;;;1.71;100.00;98919.28;10312224;28;20557;-76
2022/01/20 04:07:14;;;;;;;10.95;6.80;;;;;;;1.64;100.00;98923.16;10299100;28;20128;-77
2022/01/20 04:12:15;;;;;;;9.25;6.85;;;;;;;1.71;100.00;98924.56;10312420;28;20394;-81
2022/01/20 04:17:21;;;;;;;10.45;7.00;;;;;;;1.82;100.00;98916.72;10286393;28;20066;-80
2022/01/20 04:22:28;;;;;;;9.48;6.60;;;;;;;1.82;100.00;98908.78;10308931;28;20046;-82
2022/01/20 04:27:31;;;;;;;11.98;7.45;;;;;;;1.77;100.00;98906.91;10319843;28;20050;-80
2022/01/20 04:32:33;;;;;;;11.18;7.03;;;;;;;1.87;100.00;98908.84;10290272;28;20047;-80
2022/01/20 04:37:35;;;;;;;12.93;8.13;;;;;;;1.91;100.00;98913.38;10289200;28;20054;-79
2022/01/20 04:42:41;;;;;;;12.80;8.32;;;;;;;1.86;100.00;98904.63;10282152;28;20054;-80
2022/01/20 04:48:44;;;;;;;12.07;8.10;;;;;;;2.03;100.00;98900.00;10306602;28;20512;-79
2022/01/20 04:58:23;;;;;;;13.13;7.60;;;;;;;1.99;100.00;98898.91;10303035;28;20054;-78
2022/01/20 05:03:28;;;;;;;16.45;9.15;;;;;;;1.96;100.00;98894.91;10289565;28;20030;-77
2022/01/20 05:08:36;;;;;;;13.82;8.32;;;;;;;1.96;100.00;98908.16;10312608;28;20057;-77
2022/01/20 05:13:40;;;;;;;13.80;8.40;;;;;;;1.98;100.00;98899.94;10289447;28;20452;-78
2022/01/20 05:18:43;;;;;;;13.95;8.57;;;;;;;2.05;100.00;98905.06;10326602;28;20398;-79
2022/01/20 05:23:43;;;;;;;14.27;8.23;;;;;;;2.02;100.00;98910.84;10290388;28;20102;-78
2022/01/20 05:28:47;;;;;;;14.90;8.23;;;;;;;2.07;100.00;98909.03;10295652;28;20045;-79
2022/01/20 05:33:48;;;;;;;11.95;8.35;;;;;;;2.04;100.00;98906.91;10314961;28;20073;-77
2022/01/20 05:38:51;;;;;;;13.88;8.50;;;;;;;2.02;100.00;98901.06;10327927;28;20031;-80
2022/01/20 05:43:53;;;;;;;11.77;7.43;;;;;;;2.13;100.00;98899.28;10344828;28;20038;-79
2022/01/20 05:49:03;;;;;;;13.63;8.20;;;;;;;2.15;100.00;98900.63;10319944;28;20046;-77
2022/01/20 05:54:10;;;;;;;11.60;8.18;;;;;;;2.19;100.00;98891.13;10332949;28;20050;-76
2022/01/20 05:59:11;;;;;;;14.70;8.55;;;;;;;2.11;100.00;98893.47;10279237;28;20051;-77
2022/01/20 06:04:11;;;;;;;15.20;9.07;;;;;;;2.10;100.00;98897.13;10332068;28;20038;-77
2022/01/20 06:09:16;;;;;;;12.60;7.78;;;;;;;2.12;100.00;98895.06;10317049;28;20047;-78
2022/01/20 06:14:17;;;;;;;13.93;8.13;;;;;;;2.16;100.00;98906.72;10286307;28;20046;-78
2022/01/20 06:19:24;;;;;;;12.57;7.75;;;;;;;2.04;100.00;98891.00;10297458;28;20050;-79
2022/01/20 06:24:26;;;;;;;15.18;8.13;;;;;;;2.14;100.00;98885.81;10307847;28;20081;-78
2022/01/20 06:29:27;;;;;;;12.25;7.72;;;;;;;1.89;100.00;98880.28;10310856;28;20069;-77
2022/01/20 06:34:28;;;;;;;10.98;7.18;;;;;;;1.66;100.00;98876.13;10301607;28;20045;-78
2022/01/20 06:39:29;;;;;;;14.35;7.28;;;;;;;1.56;100.00;98878.66;10325407;28;20046;-77
2022/01/20 06:44:30;;;;;;;16.48;9.15;;;;;;;1.69;100.00;98880.91;10313588;28;20481;-78
2022/01/20 06:49:31;;;;;;;11.35;7.03;;;;;;;1.68;100.00;98876.66;10297707;28;20051;-74
2022/01/20 06:54:34;;;;;;;13.38;7.35;;;;;;;1.67;100.00;98875.84;10323824;28;20417;-74
2022/01/20 06:59:35;;;;;;;12.77;7.40;;;;;;;1.58;100.00;98873.91;10316958;28;20074;-77
2022/01/20 07:04:37;;;;;;;13.68;7.07;;;;;;;1.64;100.00;98884.28;10321302;28;20078;-78
2022/01/20 07:09:39;;;;;;;10.65;6.55;;;;;;;1.70;100.00;98893.88;10313423;28;20069;-77
2022/01/20 07:14:57;;;;;;;12.18;6.70;;;;;;;1.76;100.00;98901.88;10309052;28;20050;-76
2022/01/20 07:20:00;;;;;;;13.70;6.40;;;;;;;1.79;100.00;98894.22;10307580;28;20079;-75
2022/01/20 07:25:03;;;;;;;14.00;7.07;;;;;;;1.80;100.00;98909.03;10305203;28;20050;-76
2022/01/20 07:30:40;;;;;;;15.82;8.77;;;;;;;1.89;100.00;98926.06;10304214;28;20053;-77
2022/01/20 07:35:40;;;;;;;11.10;6.68;;;;;;;1.87;100.00;98930.03;10321909;28;20050;-76
2022/01/20 07:40:42;;;;;;;12.68;6.85;;;;;;;1.98;100.00;98937.00;10352650;28;20082;-76
2022/01/20 07:45:43;;;;;;;14.15;6.90;;;;;;;2.00;100.00;98961.38;10342501;28;20046;-76
2022/01/20 07:50:56;;;;;;;14.13;6.93;;;;;;;2.00;100.00;98958.72;10296440;28;20055;-77
2022/01/20 07:56:03;;;;;;;12.95;6.70;;;;;;;2.06;100.00;98952.44;10318814;28;20047;-78
2022/01/20 08:01:05;;;;;;;12.45;6.72;;;;;;;2.06;100.00;98943.72;10373900;28;20388;-76
2022/01/20 08:06:12;;;;;;;20.75;7.20;;;;;;;2.15;100.00;98947.50;10296247;28;20110;-75
2022/01/20 08:11:20;;;;;;;15.05;7.38;;;;;;;2.09;100.00;98948.50;10314084;28;20085;-76
2022/01/20 08:16:20;;;;;;;12.40;6.00;;;;;;;2.19;100.00;98948.59;10300569;28;20042;-76
2022/01/20 08:21:21;;;;;;;13.57;6.53;;;;;;;2.20;100.00;98953.66;10301028;28;20038;-77
2022/01/20 08:26:25;;;;;;;12.45;5.50;;;;;;;2.28;100.00;98950.50;10325912;28;20044;-76
2022/01/20 08:31:28;;;;;;;8.93;5.00;;;;;;;2.38;100.00;98938.41;10292209;28;20054;-75
2022/01/20 08:36:29;;;;;;;7.73;4.77;;;;;;;2.47;100.00;98939.53;10326920;28;20046;-77
2022/01/20 08:41:31;;;;;;;9.23;4.88;;;;;;;2.48;100.00;98949.09;10296862;28;20056;-76
2022/01/20 08:46:32;;;;;;;8.63;4.65;;;;;;;2.60;100.00;98944.41;10296442;28;20066;-76
2022/01/20 08:51:34;;;;;;;9.60;4.95;;;;;;;2.43;100.00;98962.31;10303130;28;20043;-76
2022/01/20 08:56:57;;;;;;;14.90;5.97;;;;;;;2.49;100.00;98971.91;10284640;28;37914;-74
2022/01/20 09:01:58;;;;;;;16.90;6.80;;;;;;;2.47;100.00;98972.16;10251395;28;20049;-77
2022/01/20 09:07:01;;;;;;;8.98;4.82;;;;;;;2.63;100.00;98953.72;10277789;28;20054;-76
2022/01/20 09:17:13;;;;;;;10.90;4.80;;;;;;;2.70;100.00;98946.34;10236110;28;20098;-76
2022/01/20 09:22:14;;;;;;;9.88;4.82;;;;;;;2.77;100.00;98929.16;10263425;28;20931;-76
2022/01/20 09:27:15;;;;;;;8.15;3.85;;;;;;;2.80;100.00;98931.31;10287808;28;20059;-76
2022/01/20 09:32:18;;;;;;;10.93;4.40;;;;;;;2.75;100.00;98927.84;10270294;28;20047;-77
2022/01/20 09:37:20;;;;;;;8.77;4.25;;;;;;;2.84;100.00;98932.41;10304611;28;20517;-76
2022/01/20 09:42:25;;;;;;;6.05;3.50;;;;;;;3.08;100.00;98924.03;10318460;28;20051;-78
2022/01/20 09:47:26;;;;;;;7.35;2.90;;;;;;;3.04;100.00;98952.94;10285551;28;20169;-76
2022/01/20 09:53:02;;;;;;;9.32;3.70;;;;;;;3.10;100.00;98962.50;10311617;28;20056;-76
2022/01/20 09:58:16;;;;;;;11.30;3.60;;;;;;;3.17;100.00;98948.22;10303315;28;20101;-78
2022/01/20 10:03:19;;;;;;;11.32;3.75;;;;;;;3.20;100.00;98951.16;10282957;28;20043;-76
2022/01/20 10:08:28;;;;;;;10.23;4.88;;;;;;;3.21;100.00;98951.97;10327540;28;20051;-76
2022/01/20 10:13:46;;;;;;;8.43;3.03;;;;;;;3.17;100.00;98962.25;10317711;28;20793;-75
2022/01/20 10:19:07;;;;;;;9.88;3.28;;;;;;;3.03;100.00;98980.50;10293333;28;20054;-77
2022/01/20 10:24:13;;;;;;;4.75;2.95;;;;;;;3.09;100.00;98970.69;10283696;28;20046;-75
2022/01/20 10:29:31;;;;;;;7.68;2.90;;;;;;;2.71;100.00;99077.81;10312904;28;20493;-75
2022/01/20 10:34:35;;;;;;;1.92;1.23;;;;;;;0.33;100.00;99076.97;10285978;28;20181;-76
2022/01/20 10:40:13;;;;;;;2.22;1.00;;;;;;;-0.27;100.00;99082.69;10282670;28;20058;-76
2022/01/20 10:45:29;;;;;;;5.35;1.80;;;;;;;-0.39;100.00;99082.66;10331288;28;20397;-77
2022/01/20 10:50:36;;;;;;;5.95;1.90;;;;;;;-0.22;100.00;99071.41;10323269;28;20089;-76
2022/01/20 10:55:40;;;;;;;3.28;1.48;;;;;;;-0.28;100.00;99087.13;10347266;28;20152;-79
2022/01/20 11:00:53;;;;;;;5.05;1.58;;;;;;;-0.21;100.00;99073.81;10332355;28;20134;-78
2022/01/20 11:06:05;;;;;;;5.93;1.60;;;;;;;-0.10;100.00;99058.97;10344281;28;20054;-77
2022/01/20 11:11:26;;;;;;;4.97;1.42;;;;;;;-0.17;100.00;99053.84;10300678;28;20054;-79
2022/01/20 11:16:58;;;;;;;6.90;1.55;;;;;;;-0.07;100.00;99047.97;10295529;28;20062;-78
2022/01/20 11:22:12;;;;;;;7.90;2.55;;;;;;;0.25;100.00;99041.19;10294946;28;20469;-79
2022/01/20 11:27:16;;;;;;;7.43;1.90;;;;;;;0.39;100.00;99035.63;10318564;28;20065;-79
2022/01/20 11:32:37;;;;;;;4.32;1.60;;;;;;;0.67;100.00;99046.13;10322406;28;20050;-78
2022/01/20 11:38:00;;;;;;;7.07;2.05;;;;;;;0.91;100.00;99049.41;10338796;28;20050;-79
2022/01/20 11:43:09;;;;;;;8.70;2.33;;;;;;;1.33;100.00;99033.09;10313776;28;20631;-78
2022/01/20 11:48:19;;;;;;;8.57;2.95;;;;;;;1.54;100.00;99023.59;10295339;28;20054;-77
2022/01/20 11:53:20;;;;;;;8.18;2.50;;;;;;;1.90;100.00;99024.81;10289151;28;20194;-76
2022/01/20 11:58:24;;;;;;;6.53;2.28;;;;;;;1.88;100.00;99026.91;10280625;28;20058;-77
2022/01/20 12:03:24;;;;;;;6.88;3.05;;;;;;;1.85;100.00;99028.22;10313896;28;20565;-77
2022/01/20 12:08:27;;;;;;;5.38;2.03;;;;;;;1.81;100.00;99013.84;10309192;28;20095;-80
2022/01/20 12:13:30;;;;;;;6.43;2.45;;;;;;;2.03;100.00;99010.41;10309850;28;20714;-77
2022/01/20 12:18:31;;;;;;;8.18;1.83;;;;;;;1.58;100.00;99011.47;10275736;28;20046;-76
2022/01/20 12:23:41;;;;;;;5.43;1.40;;;;;;;2.18;100.00;99027.22;10295048;28;20062;-76
2022/01/20 12:28:42;;;;;;;7.03;2.25;;;;;;;2.82;100.00;99008.72;10326351;28;20412;-77
2022/01/20 12:33:46;;;;;;;8.18;1.42;;;;;;;3.08;100.00;99000.94;10258655;28;20054;-77
2022/01/20 12:38:52;;;;;;;6.38;1.55;;;;;;;3.36;100.00;99003.22;10301849;28;20050;-76
2022/01/20 12:44:05;;;;;;;6.85;2.22;;;;;;;3.79;100.00;98997.84;10310086;28;20023;-78
2022/01/20 12:49:16;;;;;;;4.32;1.60;;;;;;;4.07;100.00;98994.72;10343332;28;20050;-78
2022/01/20 12:54:31;;;;;;;4.90;1.90;;;;;;;3.73;100.00;99007.63;10346125;28;20054;-77
2022/01/20 12:59:40;;;;;;;6.78;1.75;;;;;;;3.64;100.00;98996.69;10330300;28;20088;-78
2022/01/20 13:05:04;;;;;;;9.00;2.10;;;;;;;2.68;100.00;98998.81;10336548;28;20279;-78
2022/01/20 13:10:34;;;;;;;4.70;1.48;;;;;;;3.48;100.00;99008.34;10310114;28;20122;-79
2022/01/20 13:15:35;;;;;;;4.78;1.80;;;;;;;3.97;100.00;99008.78;10303510;28;20416;-79
2022/01/20 13:20:42;;;;;;;8.45;1.80;;;;;;;3.60;100.00;99011.56;10314588;28;20121;-78
2022/01/20 13:25:42;;;;;;;6.13;1.70;;;;;;;2.95;100.00;99012.00;10303843;28;20047;-78
2022/01/20 13:30:50;;;;;;;7.25;1.83;;;;;;;2.31;100.00;99009.34;10298313;28;20049;-78
2022/01/20 13:35:56;;;;;;;6.28;1.80;;;;;;;1.71;100.00;99005.81;10320615;28;20054;-76
2022/01/20 13:41:07;;;;;;;5.50;1.38;;;;;;;1.39;100.00;99006.50;10327275;28;20722;-76
2022/01/20 13:46:28;;;;;;;3.75;1.00;;;;;;;1.01;100.00;99007.28;10323104;28;20042;-78
2022/01/20 13:51:28;;;;;;;5.03;1.30;;;;;;;1.00;100.00;99016.25;10344413;28;20286;-77
2022/01/20 13:56:30;;;;;;;4.85;1.50;;;;;;;1.13;100.00;99023.06;10350575;28;20049;-78
2022/01/20 14:01:32;;;;;;;4.25;1.40;;;;;;;1.34;100.00;99030.22;10326461;28;20069;-78
2022/01/20 14:06:33;;;;;;;5.65;1.33;;;;;;;1.65;100.00;99062.38;10314969;28;20050;-79
2022/01/20 14:11:33;;;;;;;4.85;1.67;;;;;;;0.59;100.00;99059.72;10352019;28;20289;-77
2022/01/20 14:16:35;;;;;;;5.97;1.10;;;;;;;0.57;100.00;99102.22;10364550;28;20058;-78
2022/01/20 14:21:37;;;;;;;4.18;1.35;;;;;;;0.48;100.00;99108.94;10380409;28;20038;-79
2022/01/20 14:26:44;;;;;;;3.47;1.10;;;;;;;0.52;100.00;99127.75;10389610;28;20038;-80
2022/01/20 14:31:45;;;;;;;3.63;1.35;;;;;;;0.74;100.00;99120.75;10341035;28;20113;-80
2022/01/20 14:36:45;;;;;;;5.85;1.48;;;;;;;1.07;100.00;99121.81;10357859;28;20052;-80
2022/01/20 14:41:46;;;;;;;6.93;1.58;;;;;;;1.20;100.00;99120.72;10340995;28;20505;-79
2022/01/20 14:46:47;;;;;;;5.97;1.83;;;;;;;1.22;100.00;99114.13;10344764;28;20494;-78
2022/01/20 14:51:52;;;;;;;4.15;1.40;;;;;;;1.11;100.00;99099.97;10333693;28;20046;-78
2022/01/20 14:56:53;;;;;;;5.47;2.17;;;;;;;0.91;100.00;99093.53;10342312;28;20050;-77
2022/01/20 15:01:54;;;;;;;6.63;2.00;;;;;;;0.85;100.00;99103.22;10339737;28;20063;-77
2022/01/20 15:07:00;;;;;;;4.93;1.58;;;;;;;0.66;100.00;99107.94;10331254;28;20054;-77
2022/01/20 15:12:01;;;;;;;5.47;2.22;;;;;;;0.62;100.00;99127.13;10343742;28;20042;-78
2022/01/20 15:17:03;;;;;;;15.80;2.78;;;;;;;0.95;100.00;99121.91;10344871;28;20053;-78
2022/01/20 15:22:28;;;;;;;7.45;1.70;;;;;;;0.79;100.00;99126.13;10332735;28;20050;-77
2022/01/20 15:27:28;;;;;;;3.83;1.58;;;;;;;0.69;100.00;99133.06;10357104;28;20070;-79
2022/01/20 15:32:30;;;;;;;7.22;1.90;;;;;;;0.54;100.00;99126.47;10347523;28;20177;-77
2022/01/20 15:37:30;;;;;;;3.33;1.63;;;;;;;0.61;100.00;99121.03;10336466;28;20629;-78
2022/01/20 15:42:31;;;;;;;5.82;1.23;;;;;;;0.44;100.00;99112.28;10344776;28;20129;-79
2022/01/20 15:47:34;;;;;;;4.18;1.95;;;;;;;0.39;100.00;99126.19;10337304;28;20763;-79
2022/01/20 15:52:37;;;;;;;5.10;1.45;;;;;;;0.39;100.00;99135.97;10332793;28;20049;-82
2022/01/20 15:57:38;;;;;;;4.80;1.40;;;;;;;0.34;100.00;99130.56;10330635;28;20054;-78
2022/01/20 16:02:40;;;;;;;4.97;1.58;;;;;;;0.43;100.00;99137.06;10326777;28;20077;-77
2022/01/20 16:07:41;;;;;;;4.65;1.63;;;;;;;0.49;100.00;99136.16;10357608;28;20044;-78
2022/01/20 16:12:43;;;;;;;5.00;1.63;;;;;;;0.59;100.00;99114.41;10348013;28;20042;-77
2022/01/20 16:17:44;;;;;;;4.57;1.75;;;;;;;0.53;100.00;99118.78;10342044;28;20068;-76
2022/01/20 16:22:44;;;;;;;4.65;2.20;;;;;;;0.43;100.00;99124.66;10324822;28;20054;-78
2022/01/20 16:27:46;;;;;;;3.08;1.38;;;;;;;0.18;100.00;99143.50;10333453;28;20077;-78
2022/01/20 16:32:47;;;;;;;4.15;1.63;;;;;;;-0.06;100.00;99155.13;10338823;28;20059;-77
2022/01/20 16:37:48;;;;;;;5.32;1.70;;;;;;;-0.13;100.00;99159.72;10346505;28;20054;-77
2022/01/20 16:42:48;;;;;;;4.20;1.80;;;;;;;-0.12;100.00;99164.75;10355274;28;20054;-77
2022/01/20 16:47:49;;;;;;;5.75;1.70;;;;;;;-0.18;100.00;99176.25;10346485;28;20057;-79
2022/01/20 16:52:50;;;;;;;7.38;2.22;;;;;;;-0.17;100.00;99171.78;10347586;28;20061;-77
2022/01/20 16:57:53;;;;;;;5.70;1.55;;;;;;;-0.40;100.00;99178.66;10352851;28;20045;-78
2022/01/20 17:03:12;;;;;;;4.57;1.77;;;;;;;-0.50;100.00;99182.88;10353291;28;20405;-79
2022/01/20 17:08:14;;;;;;;2.83;1.85;;;;;;;-0.56;100.00;99179.31;10330076;28;20054;-78
2022/01/20 17:13:14;;;;;;;3.17;1.33;;;;;;;-0.37;100.00;99169.47;10325926;28;20100;-79
2022/01/20 17:18:16;;;;;;;4.35;1.60;;;;;;;-0.33;100.00;99146.88;10330908;28;20042;-79
2022/01/20 17:23:17;;;;;;;3.72;1.90;;;;;;;-0.20;100.00;99169.56;10320934;28;20153;-77
2022/01/20 17:28:18;;;;;;;7.75;2.15;;;;;;;-0.21;100.00;99167.97;10334534;28;20046;-79
2022/01/20 17:33:19;;;;;;;2.25;1.98;;;;;;;-0.19;100.00;99181.72;10338809;28;20042;-79
2022/01/20 17:38:20;;;;;;;6.03;1.80;;;;;;;-0.08;100.00;99178.31;10340355;28;20054;-81
2022/01/20 17:43:23;;;;;;;4.23;1.70;;;;;;;0.03;100.00;99185.41;10343426;28;20132;-78
2022/01/20 17:48:24;;;;;;;3.75;2.10;;;;;;;-0.04;100.00;99172.31;10355664;28;20061;-79
2022/01/20 17:53:25;;;;;;;5.22;1.70;;;;;;;0.11;100.00;99182.41;10355508;28;20168;-78
2022/01/20 17:58:28;;;;;;;3.88;1.67;;;;;;;0.13;100.00;99177.69;10358354;28;20042;-79
2022/01/20 18:03:37;;;;;;;5.93;1.90;;;;;;;0.25;100.00;99175.00;10352546;28;20054;-77
2022/01/20 18:08:43;;;;;;;6.03;1.92;;;;;;;0.25;100.00;99165.25;10363723;28;20110;-77
2022/01/20 18:13:45;;;;;;;4.47;2.38;;;;;;;0.26;100.00;99174.78;10370220;28;20049;-77
2022/01/20 18:18:46;;;;;;;6.55;2.30;;;;;;;0.28;100.00;99177.22;10352000;28;20096;-77
2022/01/20 18:23:48;;;;;;;4.75;2.40;;;;;;;0.22;100.00;99178.94;10354490;28;20052;-79
2022/01/20 18:28:49;;;;;;;5.13;2.50;;;;;;;0.22;100.00;99188.69;10357253;28;20046;-78
2022/01/20 18:33:52;;;;;;;7.03;2.58;;;;;;;0.24;100.00;99195.34;10349534;28;20065;-77
2022/01/20 18:38:52;;;;;;;6.57;2.30;;;;;;;0.20;100.00;99204.75;10347179;28;20059;-77
2022/01/20 18:43:53;;;;;;;4.68;2.05;;;;;;;0.12;100.00;99210.41;10332267;28;20045;-78
2022/01/20 18:48:53;;;;;;;5.43;2.35;;;;;;;0.17;100.00;99199.94;10353155;28;20042;-78
2022/01/20 18:53:54;;;;;;;11.02;4.57;;;;;;;0.21;100.00;99208.22;10364231;28;20078;-78
2022/01/20 18:58:55;;;;;;;6.50;2.95;;;;;;;0.22;100.00;99199.25;10340087;28;20054;-78
2022/01/20 19:03:57;;;;;;;4.18;2.10;;;;;;;0.24;100.00;99178.69;10340162;28;20034;-78
2022/01/20 19:08:58;;;;;;;3.97;2.60;;;;;;;0.34;100.00;99189.47;10352726;28;20128;-80
2022/01/20 19:13:59;;;;;;;4.32;2.55;;;;;;;0.19;100.00;99187.31;10340857;28;20517;-79
2022/01/20 19:19:03;;;;;;;;;;;;;;;0.31;100.00;99208.41;10337387;28;20065;-78
2022/01/20 19:24:04;;;;;;;7.50;2.88;;;;;;;0.23;100.00;99209.56;10336407;28;19965;-77
2022/01/20 19:29:07;;;;;;;6.60;3.17;;;;;;;0.30;100.00;99206.81;10346771;28;20057;-78
2022/01/20 19:34:08;;;;;;;6.88;3.13;;;;;;;0.33;100.00;99219.53;10346264;28;20375;-77
2022/01/20 19:39:10;;;;;;;10.48;4.05;;;;;;;0.37;100.00;99222.53;10327680;28;20046;-77
2022/01/20 19:44:11;;;;;;;6.57;3.53;;;;;;;0.54;100.00;99221.53;10336725;28;20046;-78
2022/01/20 19:49:12;;;;;;;6.53;3.33;;;;;;;0.43;100.00;99229.50;10376030;28;20046;-80
2022/01/20 19:54:12;;;;;;;10.90;3.63;;;;;;;0.51;100.00;99224.66;10363386;28;20638;-78
2022/01/20 19:59:16;;;;;;;8.65;3.85;;;;;;;0.28;100.00;99219.44;10359491;28;20101;-79
2022/01/20 20:04:25;;;;;;;6.18;4.18;;;;;;;0.27;100.00;99238.94;10339602;28;20050;-77
2022/01/20 20:09:40;;;;;;;9.82;4.93;;;;;;;0.16;100.00;99240.56;10379123;28;20037;-78
2022/01/20 20:14:42;;;;;;;11.40;4.70;;;;;;;0.07;100.00;99220.84;10378216;28;20052;-78
2022/01/20 20:19:42;;;;;;;10.95;5.30;;;;;;;0.00;100.00;99246.56;10366862;28;20060;-78
2022/01/20 20:24:44;;;;;;;9.85;4.97;;;;;;;-0.08;100.00;99239.00;10367519;28;20056;-79
2022/01/20 20:29:47;;;;;;;;;;;;;;;-0.11;100.00;99250.78;10365943;28;20050;-77
2022/01/20 20:34:49;;;;;;;16.38;7.95;;;;;;;-0.17;100.00;99261.47;10344579;28;19930;-79
2022/01/20 20:39:51;;;;;;;10.10;5.22;;;;;;;-0.07;100.00;99251.16;10348166;28;20038;-78
2022/01/20 20:44:56;;;;;;;7.28;3.90;;;;;;;-0.04;100.00;99261.22;10346320;28;20053;-78
2022/01/20 20:49:57;;;;;;;7.30;4.28;;;;;;;-0.09;100.00;99280.41;10349105;28;20065;-78
2022/01/20 20:54:58;;;;;;;8.95;5.03;;;;;;;-0.16;100.00;99287.63;10347408;28;20077;-79
2022/01/20 20:59:58;;;;;;;10.00;4.13;;;;;;;-0.09;100.00;99283.03;10359046;28;20087;-79
2022/01/20 21:05:04;;;;;;;8.00;4.13;;;;;;;0.00;100.00;99291.44;10350898;28;20049;-80
2022/01/20 21:10:14;;;;;;;8.45;4.10;;;;;;;0.01;100.00;99289.59;10377106;28;20037;-79
2022/01/20 21:15:21;;;;;;;7.13;3.70;;;;;;;0.07;100.00;99296.56;10357410;28;20046;-80
2022/01/20 21:20:22;;;;;;;9.27;3.53;;;;;;;0.07;100.00;99305.28;10332743;28;20103;-78
2022/01/20 21:25:22;;;;;;;7.40;3.38;;;;;;;0.01;100.00;99302.78;10327630;28;20051;-78
2022/01/20 21:30:23;;;;;;;7.03;3.30;;;;;;;-0.15;100.00;99288.44;10335379;28;20085;-78
2022/01/20 21:35:24;;;;;;;8.27;3.22;;;;;;;-0.16;100.00;99302.66;10335310;28;20065;-78
2022/01/20 21:40:26;;;;;;;5.15;2.83;;;;;;;-0.21;100.00;99305.16;10333471;28;20115;-78
2022/01/20 21:45:28;;;;;;;8.85;4.10;;;;;;;-0.21;100.00;99300.69;10337702;28;20054;-78
2022/01/20 21:50:30;;;;;;;16.93;7.83;;;;;;;-0.39;100.00;99300.75;10335328;28;20058;-78
2022/01/20 21:55:31;;;;;;;12.45;6.80;;;;;;;-0.40;100.00;99328.97;10342523;28;20051;-78
2022/01/20 22:00:32;;;;;;;6.72;2.42;;;;;;;-0.25;100.00;99325.91;10323025;28;20054;-80
2022/01/20 22:05:32;;;;;;;7.43;2.97;;;;;;;-0.13;100.00;99318.81;10309197;28;20073;-77
2022/01/20 22:10:45;;;;;;;5.82;2.72;;;;;;;-0.22;100.00;99329.94;10344230;28;20054;-76
2022/01/20 22:15:50;;;;;;;5.63;3.30;;;;;;;-0.17;100.00;99351.16;10325102;28;20146;-78
2022/01/20 22:20:52;;;;;;;9.05;3.55;;;;;;;-0.20;100.00;99348.97;10346010;28;20351;-77
2022/01/20 22:25:53;;;;;;;6.55;3.05;;;;;;;-0.07;100.00;99352.22;10340417;28;20046;-80
2022/01/20 22:30:54;;;;;;;9.50;3.60;;;;;;;-0.20;100.00;99357.69;10340269;28;20050;-77
2022/01/20 22:35:56;;;;;;;9.43;2.85;;;;;;;-0.16;100.00;99360.69;10350994;28;20050;-77
2022/01/20 22:40:59;;;;;;;5.78;2.70;;;;;;;-0.13;100.00;99376.06;10349532;28;20072;-77
2022/01/20 22:45:59;;;;;;;6.50;2.53;;;;;;;-0.12;100.00;99391.66;10360973;28;20173;-78
2022/01/20 22:51:02;;;;;;;8.02;3.03;;;;;;;-0.01;100.00;99385.59;10364929;28;20093;-80
2022/01/20 22:56:04;;;;;;;4.63;2.70;;;;;;;0.05;100.00;99383.91;10351012;28;20054;-78
2022/01/20 23:01:10;;;;;;;6.85;2.55;;;;;;;-0.24;100.00;99401.38;10338096;28;20073;-77
2022/01/20 23:06:11;;;;;;;4.47;1.95;;;;;;;-0.30;100.00;99410.19;10330983;28;20054;-79
2022/01/20 23:11:12;;;;;;;5.57;3.13;;;;;;;-0.79;100.00;99448.94;10345857;28;20066;-78
2022/01/20 23:21:35;;;;;;;4.20;1.98;;;;;;;-1.01;100.00;99456.44;10343562;28;20046;-78
2022/01/20 23:26:37;;;;;;;3.17;1.95;;;;;;;-0.96;100.00;99464.53;10328659;28;20148;-77
2022/01/20 23:31:39;;;;;;;6.10;1.80;;;;;;;-1.03;100.00;99468.25;10327922;28;20069;-76
2022/01/20 23:36:45;;;;;;;4.93;2.40;;;;;;;-0.77;100.00;99473.25;10327489;28;20064;-78
2022/01/20 23:41:50;;;;;;;5.68;2.60;;;;;;;-0.78;100.00;99482.16;10341679;28;20061;-79
2022/01/20 23:52:11;;;;;;;5.05;2.60;;;;;;;-0.46;100.00;99476.72;10336667;28;20050;-78
2022/01/20 23:57:14;;;;;;;5.80;2.42;;;;;;;-0.54;100.00;99463.88;10319927;28;20084;-77
